Pagrindinis puslapis
METAR-TAF:

METAR-TAF

Oro uostai :

Oro pajėgų bazė

Solenzara, Prancūzija

platuma: 41-55N, ilguma: 009-24E, Aukštis: 8 m

Dabartinis oras

Ataskaita buvo paskelbta 24 minutes, ne 23:30 UTC
Vėjas 6 kt iš Vakarų
Temperatūra 13°C
Drėgmė 47%
Slėgis 1026 hPa
Matomumas 10 km arba daugiau
nėra debesų žemiau 1500 m ir nėra kamuolinių lietaus debesų

METAR: LFKS 072330Z AUTO 28006KT CAVOK 13/02 Q1026

Laikas: 01:54 (23:54 UTC)

Prognozė

Ataskaita buvo paskelbta 9 valandos ir 54 minutes, ne 14:00 UTC
Prognozė galioja nuo 07 metu 15 UTC su 08 metu 15 UTC
Vėjas 5 kt iš Rytų
Matomumas 10 km arba daugiau
nėra debesų žemiau 1500 m ir nėra kamuolinių lietaus debesų

TAF: LFKS 071400Z 0715/0815 08005KT CAVOK

Orai ataskaitas ir orų prognozės (METAR, TAF).

turimą stotys yra geltonos ir raudonos taškus žemėlapyje.

Perkelti pele per norėdami pamatyti stoties vardą.

Tada spustelėkite, norėdami matyti oro stebėjimo ir prognozės.

Norėdami pakeisti žemėlapį: spustelėkite ant žalios mygtukų su juodo kryžiaus žemyn,; žalią mygtuką su brūkšneliu, jei norite nutolinti; arba žalių rodyklių gretimoms žemėlapius.


METAR-TAF: